createdAt,value
2017-09-20T00:00:19.454Z,1016.53
2017-09-20T00:01:19.448Z,1016.51
2017-09-20T00:02:19.445Z,1016.53
2017-09-20T00:03:19.440Z,1016.51
2017-09-20T00:04:19.437Z,1016.45
2017-09-20T00:05:19.432Z,1016.43
2017-09-20T00:06:19.424Z,1016.42
2017-09-20T00:07:19.419Z,1016.42
2017-09-20T00:08:19.415Z,1016.44
2017-09-20T00:09:19.411Z,1016.42
2017-09-20T00:10:19.407Z,1016.41
2017-09-20T00:11:19.403Z,1016.46
2017-09-20T00:12:19.398Z,1016.45
2017-09-20T00:13:19.394Z,1016.39
2017-09-20T00:14:19.394Z,1016.40
2017-09-20T00:15:19.417Z,1016.43
2017-09-20T00:16:19.385Z,1016.44
2017-09-20T00:17:19.381Z,1016.46
2017-09-20T00:18:19.373Z,1016.48
2017-09-20T00:19:19.367Z,1016.49
2017-09-20T00:20:19.365Z,1016.46
2017-09-20T00:21:19.360Z,1016.53
2017-09-20T00:22:19.360Z,1016.50
2017-09-20T00:23:19.356Z,1016.51
2017-09-20T00:24:19.352Z,1016.49
2017-09-20T00:25:19.349Z,1016.55
2017-09-20T00:26:19.344Z,1016.53
2017-09-20T00:27:19.338Z,1016.55
2017-09-20T00:28:19.340Z,1016.52
2017-09-20T00:29:19.332Z,1016.59
2017-09-20T00:30:19.324Z,1016.57
2017-09-20T00:31:19.319Z,1016.54
2017-09-20T00:32:19.315Z,1016.54
2017-09-20T00:33:19.310Z,1016.52
2017-09-20T00:34:19.307Z,1016.53
2017-09-20T00:35:19.303Z,1016.50
2017-09-20T00:36:19.297Z,1016.52
2017-09-20T00:37:19.294Z,1016.52
2017-09-20T00:38:19.295Z,1016.43
2017-09-20T00:39:19.291Z,1016.50
2017-09-20T00:40:19.286Z,1016.44
2017-09-20T00:41:19.282Z,1016.45
2017-09-20T00:42:19.279Z,1016.43
2017-09-20T00:43:19.274Z,1016.46
2017-09-20T00:44:19.269Z,1016.43
2017-09-20T00:45:19.267Z,1016.46
2017-09-20T00:46:19.261Z,1016.46
2017-09-20T00:47:19.254Z,1016.40
2017-09-20T00:48:19.250Z,1016.41
2017-09-20T00:49:19.246Z,1016.45
2017-09-20T00:50:19.242Z,1016.41
2017-09-20T00:51:19.238Z,1016.38
2017-09-20T00:52:19.234Z,1016.44
2017-09-20T00:53:19.229Z,1016.41
2017-09-20T00:54:19.229Z,1016.42
2017-09-20T00:55:19.224Z,1016.41
2017-09-20T00:56:19.221Z,1016.39
2017-09-20T00:57:19.241Z,1016.35
2017-09-20T00:58:19.212Z,1016.35
2017-09-20T00:59:19.208Z,1016.35
2017-09-20T01:00:19.205Z,1016.37
2017-09-20T01:01:19.201Z,1016.35
2017-09-20T01:02:19.192Z,1016.36
2017-09-20T01:03:19.186Z,1016.32
2017-09-20T01:04:19.183Z,1016.32
2017-09-20T01:05:19.179Z,1016.34
2017-09-20T01:06:19.175Z,1016.25
2017-09-20T01:07:19.172Z,1016.27
2017-09-20T01:08:19.165Z,1016.29
2017-09-20T01:09:19.162Z,1016.26
2017-09-20T01:10:19.160Z,1016.28
2017-09-20T01:11:19.156Z,1016.32
2017-09-20T01:12:19.153Z,1016.27
2017-09-20T01:13:19.147Z,1016.24
2017-09-20T01:14:19.145Z,1016.29
2017-09-20T01:15:19.137Z,1016.27
2017-09-20T01:16:19.134Z,1016.24
2017-09-20T01:17:19.129Z,1016.24
2017-09-20T01:18:19.122Z,1016.30
2017-09-20T01:19:19.120Z,1016.27
2017-09-20T01:20:19.113Z,1016.28
2017-09-20T01:21:19.111Z,1016.32
2017-09-20T01:22:19.108Z,1016.30
2017-09-20T01:23:19.103Z,1016.28
2017-09-20T01:24:19.098Z,1016.27
2017-09-20T01:25:19.093Z,1016.32
2017-09-20T01:26:19.086Z,1016.36
2017-09-20T01:27:19.081Z,1016.33
2017-09-20T01:28:19.075Z,1016.33
2017-09-20T01:29:19.071Z,1016.36
2017-09-20T01:30:19.070Z,1016.31
2017-09-20T01:31:19.062Z,1016.28
2017-09-20T01:32:19.058Z,1016.27
2017-09-20T01:33:19.054Z,1016.27
2017-09-20T01:34:19.053Z,1016.26
2017-09-20T01:35:19.049Z,1016.25
2017-09-20T01:36:19.044Z,1016.30
2017-09-20T01:37:19.040Z,1016.27
2017-09-20T01:38:19.035Z,1016.28
2017-09-20T01:39:19.030Z,1016.28
2017-09-20T01:40:19.025Z,1016.26
2017-09-20T01:41:19.020Z,1016.24
2017-09-20T01:42:19.013Z,1016.30
2017-09-20T01:43:19.008Z,1016.29
2017-09-20T01:44:19.004Z,1016.29
2017-09-20T01:45:18.999Z,1016.25
2017-09-20T01:46:18.999Z,1016.31
2017-09-20T01:47:18.989Z,1016.26
2017-09-20T01:48:18.986Z,1016.28
2017-09-20T01:49:19.015Z,1016.24
2017-09-20T01:50:18.980Z,1016.28
2017-09-20T01:51:18.981Z,1016.18
2017-09-20T01:52:18.971Z,1016.20
2017-09-20T01:53:18.967Z,1016.22
2017-09-20T01:54:18.962Z,1016.23
2017-09-20T01:55:18.958Z,1016.23
2017-09-20T01:56:18.952Z,1016.22
2017-09-20T01:57:18.951Z,1016.20
2017-09-20T01:58:18.940Z,1016.21
2017-09-20T01:59:18.935Z,1016.22
2017-09-20T02:00:18.937Z,1016.19
2017-09-20T02:01:18.926Z,1016.17
2017-09-20T02:02:18.922Z,1016.21
2017-09-20T02:03:18.924Z,1016.22
2017-09-20T02:04:18.914Z,1016.22
2017-09-20T02:05:18.909Z,1016.25
2017-09-20T02:06:18.910Z,1016.22
2017-09-20T02:07:18.904Z,1016.21
2017-09-20T02:08:18.901Z,1016.23
2017-09-20T02:09:18.896Z,1016.24
2017-09-20T02:10:18.897Z,1016.20
2017-09-20T02:11:18.886Z,1016.23
2017-09-20T02:12:18.882Z,1016.21
2017-09-20T02:13:18.878Z,1016.19
2017-09-20T02:14:18.869Z,1016.19
2017-09-20T02:15:18.865Z,1016.21
2017-09-20T02:16:18.860Z,1016.21
2017-09-20T02:17:18.856Z,1016.19
2017-09-20T02:18:18.852Z,1016.19
2017-09-20T02:19:18.847Z,1016.19
2017-09-20T02:20:18.843Z,1016.21
2017-09-20T02:21:18.841Z,1016.22
2017-09-20T02:22:18.838Z,1016.21
2017-09-20T02:23:18.833Z,1016.17
2017-09-20T02:24:18.829Z,1016.21
2017-09-20T02:25:18.824Z,1016.24
2017-09-20T02:26:18.816Z,1016.19
2017-09-20T02:27:18.811Z,1016.19
2017-09-20T02:28:18.805Z,1016.17
2017-09-20T02:29:18.802Z,1016.21
2017-09-20T02:30:18.806Z,1016.15
2017-09-20T02:31:18.797Z,1016.13
2017-09-20T02:32:18.793Z,1016.11
2017-09-20T02:33:18.790Z,1016.14
2017-09-20T02:34:18.785Z,1016.15
2017-09-20T02:35:18.779Z,1016.11
2017-09-20T02:36:18.775Z,1016.11
2017-09-20T02:37:18.771Z,1016.09
2017-09-20T02:38:18.763Z,1016.17
2017-09-20T02:39:18.757Z,1016.07
2017-09-20T02:40:18.756Z,1016.10
2017-09-20T02:41:18.749Z,1016.11
2017-09-20T02:42:18.745Z,1016.06
2017-09-20T02:43:18.742Z,1016.07
2017-09-20T02:44:18.735Z,1016.06
2017-09-20T02:45:18.731Z,1016.07
2017-09-20T02:46:18.733Z,1016.13
2017-09-20T02:47:18.733Z,1016.10
2017-09-20T02:48:18.726Z,1016.09
2017-09-20T02:49:18.721Z,1016.13
2017-09-20T02:50:18.712Z,1016.13
2017-09-20T02:51:18.710Z,1016.11
2017-09-20T02:52:18.713Z,1016.18
2017-09-20T02:53:18.699Z,1016.15
2017-09-20T02:54:18.692Z,1016.11
2017-09-20T02:55:18.685Z,1016.12
2017-09-20T02:56:18.682Z,1016.15
2017-09-20T02:57:18.680Z,1016.14
2017-09-20T02:58:18.674Z,1016.18
2017-09-20T02:59:18.668Z,1016.25
2017-09-20T03:00:18.664Z,1016.23
2017-09-20T03:01:18.659Z,1016.27
2017-09-20T03:02:18.663Z,1016.28
2017-09-20T03:03:18.655Z,1016.27
2017-09-20T03:04:18.651Z,1016.27
2017-09-20T03:05:18.648Z,1016.22
2017-09-20T03:06:18.643Z,1016.19
2017-09-20T03:07:18.638Z,1016.25
2017-09-20T03:08:18.634Z,1016.24
2017-09-20T03:09:18.631Z,1016.25
2017-09-20T03:10:18.621Z,1016.22
2017-09-20T03:11:18.617Z,1016.25
2017-09-20T03:12:18.615Z,1016.29
2017-09-20T03:13:18.608Z,1016.29
2017-09-20T03:14:18.605Z,1016.37
2017-09-20T03:15:18.600Z,1016.34
2017-09-20T03:16:18.596Z,1016.35
2017-09-20T03:17:18.591Z,1016.37
2017-09-20T03:18:18.591Z,1016.36
2017-09-20T03:19:18.586Z,1016.38
2017-09-20T03:20:18.583Z,1016.41
2017-09-20T03:21:18.578Z,1016.37
2017-09-20T03:22:18.574Z,1016.33
2017-09-20T03:23:18.570Z,1016.30
2017-09-20T03:24:18.566Z,1016.31
2017-09-20T03:25:18.562Z,1016.30
2017-09-20T03:26:18.555Z,1016.37
2017-09-20T03:27:18.549Z,1016.35
2017-09-20T03:28:18.544Z,1016.34
2017-09-20T03:29:18.541Z,1016.37
2017-09-20T03:30:18.542Z,1016.34
2017-09-20T03:31:18.536Z,1016.36
2017-09-20T03:32:18.531Z,1016.33
2017-09-20T03:33:18.531Z,1016.36
2017-09-20T03:34:18.520Z,1016.34
2017-09-20T03:35:18.514Z,1016.32
2017-09-20T03:36:18.510Z,1016.35
2017-09-20T03:37:18.506Z,1016.33
2017-09-20T03:38:18.506Z,1016.38
2017-09-20T03:39:18.497Z,1016.37
2017-09-20T03:40:18.493Z,1016.40
2017-09-20T03:41:18.490Z,1016.43
2017-09-20T03:42:18.491Z,1016.40
2017-09-20T03:43:18.484Z,1016.41
2017-09-20T03:44:18.480Z,1016.38
2017-09-20T03:45:18.475Z,1016.40
2017-09-20T03:46:18.473Z,1016.43
2017-09-20T03:47:18.467Z,1016.46
2017-09-20T03:48:18.464Z,1016.50
2017-09-20T03:49:18.458Z,1016.47
2017-09-20T03:50:18.451Z,1016.47
2017-09-20T03:51:18.446Z,1016.46
2017-09-20T03:52:18.441Z,1016.44
2017-09-20T03:53:18.437Z,1016.41
2017-09-20T03:54:18.433Z,1016.42
2017-09-20T03:55:18.429Z,1016.46
2017-09-20T03:56:18.425Z,1016.43
2017-09-20T03:57:18.421Z,1016.45
2017-09-20T03:58:18.428Z,1016.44
2017-09-20T03:59:18.416Z,1016.46
2017-09-20T04:00:18.414Z,1016.45
2017-09-20T04:01:18.412Z,1016.50
2017-09-20T04:02:18.405Z,1016.52
2017-09-20T04:03:18.398Z,1016.50
2017-09-20T04:04:18.395Z,1016.49
2017-09-20T04:05:18.392Z,1016.47
2017-09-20T04:06:18.383Z,1016.50
2017-09-20T04:07:18.378Z,1016.49
2017-09-20T04:08:18.376Z,1016.50
2017-09-20T04:09:18.371Z,1016.47
2017-09-20T04:10:18.368Z,1016.42
2017-09-20T04:11:18.362Z,1016.50
2017-09-20T04:12:18.357Z,1016.48
2017-09-20T04:13:18.355Z,1016.50
2017-09-20T04:14:18.354Z,1016.43
2017-09-20T04:15:18.349Z,1016.47
2017-09-20T04:16:18.343Z,1016.45
2017-09-20T04:17:18.340Z,1016.50
2017-09-20T04:18:18.336Z,1016.47
2017-09-20T04:19:18.332Z,1016.45
2017-09-20T04:20:18.327Z,1016.48
2017-09-20T04:21:18.323Z,1016.50
2017-09-20T04:22:18.315Z,1016.50
2017-09-20T04:23:18.316Z,1016.52
2017-09-20T04:24:18.305Z,1016.52
2017-09-20T04:25:18.301Z,1016.46
2017-09-20T04:26:18.297Z,1016.47
2017-09-20T04:27:18.292Z,1016.50
2017-09-20T04:28:18.288Z,1016.41
2017-09-20T04:29:18.284Z,1016.51
2017-09-20T04:30:18.284Z,1016.49
2017-09-20T04:31:18.278Z,1016.50
2017-09-20T04:32:18.274Z,1016.46
2017-09-20T04:33:18.270Z,1016.45
2017-09-20T04:34:18.264Z,1016.49
2017-09-20T04:35:18.262Z,1016.46
2017-09-20T04:36:18.255Z,1016.51
2017-09-20T04:37:18.251Z,1016.49
2017-09-20T04:38:18.243Z,1016.48
2017-09-20T04:39:18.236Z,1016.46
2017-09-20T04:40:18.236Z,1016.44
2017-09-20T04:41:18.229Z,1016.47
2017-09-20T04:42:18.223Z,1016.44
2017-09-20T04:43:18.218Z,1016.47
2017-09-20T04:44:18.214Z,1016.45
2017-09-20T04:45:18.211Z,1016.48
2017-09-20T04:46:18.209Z,1016.45
2017-09-20T04:47:18.203Z,1016.47
2017-09-20T04:48:18.200Z,1016.44
2017-09-20T04:49:18.195Z,1016.42
2017-09-20T04:50:18.191Z,1016.44
2017-09-20T04:51:18.186Z,1016.44
2017-09-20T04:52:18.181Z,1016.41
2017-09-20T04:53:18.176Z,1016.40
2017-09-20T04:54:18.169Z,1016.43
2017-09-20T04:55:18.163Z,1016.36
2017-09-20T04:56:18.159Z,1016.37
2017-09-20T04:57:18.154Z,1016.38
2017-09-20T04:58:18.151Z,1016.41
2017-09-20T04:59:18.145Z,1016.42
2017-09-20T05:00:18.158Z,1016.41
2017-09-20T05:01:18.135Z,1016.42
2017-09-20T05:02:18.137Z,1016.45
2017-09-20T05:03:18.130Z,1016.44
2017-09-20T05:04:18.125Z,1016.45
2017-09-20T05:05:18.121Z,1016.42
2017-09-20T05:06:18.117Z,1016.46
2017-09-20T05:07:18.111Z,1016.46
2017-09-20T05:08:18.108Z,1016.44
2017-09-20T05:09:18.103Z,1016.45
2017-09-20T05:10:18.095Z,1016.45
2017-09-20T05:11:18.090Z,1016.42
2017-09-20T05:12:18.089Z,1016.44
2017-09-20T05:13:18.080Z,1016.45
2017-09-20T05:14:18.079Z,1016.51
2017-09-20T05:15:18.070Z,1016.48
2017-09-20T05:16:18.067Z,1016.54
2017-09-20T05:17:18.062Z,1016.54
2017-09-20T05:18:18.063Z,1016.48
2017-09-20T05:19:18.058Z,1016.51
2017-09-20T05:20:18.051Z,1016.50
2017-09-20T05:21:18.054Z,1016.53
2017-09-20T05:22:18.045Z,1016.54
2017-09-20T05:23:18.040Z,1016.60
2017-09-20T05:24:18.036Z,1016.57
2017-09-20T05:25:18.030Z,1016.57
2017-09-20T05:26:18.022Z,1016.57
2017-09-20T05:27:18.017Z,1016.56
2017-09-20T05:28:18.014Z,1016.59
2017-09-20T05:29:18.009Z,1016.54
2017-09-20T05:30:18.006Z,1016.61
2017-09-20T05:31:18.000Z,1016.67
2017-09-20T05:32:17.996Z,1016.65
2017-09-20T05:33:17.992Z,1016.68
2017-09-20T05:34:17.992Z,1016.60
2017-09-20T05:35:17.986Z,1016.62
2017-09-20T05:36:17.982Z,1016.65
2017-09-20T05:37:17.978Z,1016.66
2017-09-20T05:38:17.976Z,1016.63
2017-09-20T05:39:17.967Z,1016.65
2017-09-20T05:40:17.961Z,1016.69
2017-09-20T05:41:17.958Z,1016.63
2017-09-20T05:42:17.960Z,1016.67
2017-09-20T05:43:17.953Z,1016.68
2017-09-20T05:44:17.949Z,1016.65
2017-09-20T05:45:17.945Z,1016.66
2017-09-20T05:46:17.941Z,1016.64
2017-09-20T05:47:17.935Z,1016.62
2017-09-20T05:48:17.931Z,1016.63
2017-09-20T05:49:17.929Z,1016.71
2017-09-20T05:50:17.920Z,1016.63
2017-09-20T05:51:17.915Z,1016.67
2017-09-20T05:52:17.912Z,1016.64
2017-09-20T05:53:17.907Z,1016.64
2017-09-20T05:54:17.906Z,1016.62
2017-09-20T05:55:17.898Z,1016.64
2017-09-20T05:56:17.894Z,1016.62
2017-09-20T05:57:17.889Z,1016.62
2017-09-20T05:58:17.889Z,1016.65
2017-09-20T05:59:17.916Z,1016.61
2017-09-20T06:00:17.888Z,1016.67
2017-09-20T06:01:17.876Z,1016.65
2017-09-20T06:02:17.873Z,1016.67
2017-09-20T06:03:17.868Z,1016.68
2017-09-20T06:04:17.864Z,1016.70
2017-09-20T06:05:17.860Z,1016.70
2017-09-20T06:06:17.852Z,1016.68
2017-09-20T06:07:17.848Z,1016.67
2017-09-20T06:08:17.842Z,1016.71
2017-09-20T06:09:17.839Z,1016.71
2017-09-20T06:10:17.834Z,1016.71
2017-09-20T06:11:17.831Z,1016.70
2017-09-20T06:12:17.827Z,1016.75
2017-09-20T06:13:17.823Z,1016.72
2017-09-20T06:14:17.824Z,1016.70
2017-09-20T06:15:17.818Z,1016.72
2017-09-20T06:16:17.813Z,1016.76
2017-09-20T06:17:17.811Z,1016.73
2017-09-20T06:18:17.807Z,1016.75
2017-09-20T06:19:17.803Z,1016.74
2017-09-20T06:20:17.801Z,1016.73
2017-09-20T06:21:17.796Z,1016.72
2017-09-20T06:22:17.788Z,1016.70
2017-09-20T06:23:17.783Z,1016.72
2017-09-20T06:24:17.781Z,1016.68
2017-09-20T06:25:17.776Z,1016.73
2017-09-20T06:26:17.772Z,1016.65
2017-09-20T06:27:17.768Z,1016.68
2017-09-20T06:28:17.765Z,1016.68
2017-09-20T06:29:17.761Z,1016.63
2017-09-20T06:30:17.762Z,1016.65
2017-09-20T06:31:17.760Z,1016.70
2017-09-20T06:32:17.753Z,1016.67
2017-09-20T06:33:17.748Z,1016.69
2017-09-20T06:34:17.745Z,1016.66
2017-09-20T06:35:17.742Z,1016.71
2017-09-20T06:36:17.736Z,1016.71
2017-09-20T06:37:17.734Z,1016.75
2017-09-20T06:38:17.726Z,1016.73
2017-09-20T06:39:17.722Z,1016.76
2017-09-20T06:40:17.717Z,1016.79
2017-09-20T06:41:17.714Z,1016.80
2017-09-20T06:42:17.715Z,1016.78
2017-09-20T06:43:17.710Z,1016.77
2017-09-20T06:44:17.707Z,1016.78
2017-09-20T06:45:17.703Z,1016.73
2017-09-20T06:46:17.695Z,1016.76
2017-09-20T06:47:17.690Z,1016.78
2017-09-20T06:48:17.689Z,1016.81
2017-09-20T06:49:17.683Z,1016.86
2017-09-20T06:50:17.679Z,1016.84
2017-09-20T06:51:17.674Z,1016.87
2017-09-20T06:52:17.671Z,1016.83
2017-09-20T06:53:17.666Z,1016.77
2017-09-20T06:54:17.668Z,1016.81
2017-09-20T06:55:17.663Z,1016.85
2017-09-20T06:56:17.659Z,1016.80
2017-09-20T06:57:17.656Z,1016.82
2017-09-20T06:58:17.652Z,1016.79
2017-09-20T06:59:17.649Z,1016.73
2017-09-20T07:00:17.644Z,1016.79
2017-09-20T07:01:17.641Z,1016.80
2017-09-20T07:02:17.633Z,1016.88
2017-09-20T07:03:17.628Z,1016.87
2017-09-20T07:04:17.626Z,1016.89
2017-09-20T07:05:17.621Z,1016.88
2017-09-20T07:06:17.616Z,1016.88
2017-09-20T07:07:17.613Z,1016.89
2017-09-20T07:08:17.609Z,1016.88
2017-09-20T07:09:17.606Z,1016.92
2017-09-20T07:10:17.606Z,1016.90
2017-09-20T07:11:17.601Z,1016.91
2017-09-20T07:12:17.598Z,1016.88
2017-09-20T07:13:17.594Z,1016.95
2017-09-20T07:14:17.590Z,1016.92
2017-09-20T07:15:17.587Z,1016.91
2017-09-20T07:16:17.584Z,1016.94
2017-09-20T07:17:17.582Z,1016.95
2017-09-20T07:18:17.572Z,1016.97
2017-09-20T07:19:17.567Z,1016.99
2017-09-20T07:20:17.565Z,1016.98
2017-09-20T07:21:17.561Z,1016.98
2017-09-20T07:22:17.558Z,1017.01
2017-09-20T07:23:17.553Z,1017.02
2017-09-20T07:24:17.550Z,1017.05
2017-09-20T07:25:17.552Z,1017.06
2017-09-20T07:26:17.554Z,1017.06
2017-09-20T07:27:17.542Z,1017.04
2017-09-20T07:28:17.540Z,1017.05
2017-09-20T07:29:17.537Z,1017.05
2017-09-20T07:30:17.534Z,1017.08
2017-09-20T07:31:17.530Z,1017.05
2017-09-20T07:32:17.529Z,1017.04
2017-09-20T07:33:17.524Z,1017.06
2017-09-20T07:34:17.517Z,1017.07
2017-09-20T07:35:17.514Z,1017.10
2017-09-20T07:36:17.510Z,1017.09
2017-09-20T07:37:17.507Z,1017.10
2017-09-20T07:38:17.505Z,1017.18
2017-09-20T07:39:17.500Z,1017.18
2017-09-20T07:40:17.496Z,1017.13
2017-09-20T07:41:17.493Z,1017.14
2017-09-20T07:42:17.496Z,1017.11
2017-09-20T07:43:17.492Z,1017.14
2017-09-20T07:44:17.489Z,1017.12
2017-09-20T07:45:17.486Z,1017.15
2017-09-20T07:46:17.480Z,1017.20
2017-09-20T07:47:17.496Z,1017.22
2017-09-20T07:48:17.474Z,1017.16
2017-09-20T07:49:17.473Z,1017.16
2017-09-20T07:50:17.473Z,1017.20
2017-09-20T07:51:17.471Z,1017.15
2017-09-20T07:52:17.468Z,1017.11
2017-09-20T07:53:17.467Z,1017.21
2017-09-20T07:54:17.464Z,1017.20
2017-09-20T07:55:17.461Z,1017.19
2017-09-20T07:56:17.459Z,1017.18
2017-09-20T07:57:17.456Z,1017.17
2017-09-20T07:58:17.450Z,1017.17
2017-09-20T07:59:17.448Z,1017.20
2017-09-20T08:00:17.446Z,1017.14
2017-09-20T08:01:17.444Z,1017.14
2017-09-20T08:02:17.442Z,1017.10
2017-09-20T08:03:17.440Z,1017.15
2017-09-20T08:04:17.438Z,1017.13
2017-09-20T08:05:17.437Z,1017.11
2017-09-20T08:06:17.439Z,1017.12
2017-09-20T08:07:17.437Z,1017.17
2017-09-20T08:08:17.435Z,1017.15
2017-09-20T08:09:17.433Z,1017.26
2017-09-20T08:10:17.431Z,1017.21
2017-09-20T08:11:17.430Z,1017.15
2017-09-20T08:12:17.428Z,1017.19
2017-09-20T08:13:17.428Z,1017.18
2017-09-20T08:14:17.423Z,1017.13
2017-09-20T08:15:17.426Z,1017.12
2017-09-20T08:16:17.419Z,1017.17
2017-09-20T08:17:17.417Z,1017.23
2017-09-20T08:18:17.418Z,1017.24
2017-09-20T08:19:17.415Z,1017.22
2017-09-20T08:20:17.413Z,1017.25
2017-09-20T08:21:17.413Z,1017.39
2017-09-20T08:22:17.417Z,1017.39
2017-09-20T08:23:17.415Z,1017.33
2017-09-20T08:24:17.414Z,1017.36
2017-09-20T08:25:17.412Z,1017.41
2017-09-20T08:26:17.411Z,1017.38
2017-09-20T08:27:17.411Z,1017.35
2017-09-20T08:28:17.411Z,1017.37
2017-09-20T08:29:17.408Z,1017.31
2017-09-20T08:30:17.405Z,1017.33
2017-09-20T08:31:17.404Z,1017.38
2017-09-20T08:32:17.404Z,1017.44
2017-09-20T08:33:17.403Z,1017.44
2017-09-20T08:34:17.404Z,1017.48
2017-09-20T08:35:17.403Z,1017.41
2017-09-20T08:36:17.402Z,1017.38
2017-09-20T08:37:17.403Z,1017.35
2017-09-20T08:38:17.406Z,1017.38
2017-09-20T08:39:17.406Z,1017.40
2017-09-20T08:40:17.416Z,1017.47
2017-09-20T08:41:17.451Z,1017.46
2017-09-20T08:42:17.407Z,1017.57
2017-09-20T08:43:17.408Z,1017.64
2017-09-20T08:44:17.408Z,1017.75
2017-09-20T08:45:17.409Z,1017.63
2017-09-20T08:46:17.404Z,1017.55
2017-09-20T08:47:17.405Z,1017.62
2017-09-20T08:48:17.407Z,1017.64
2017-09-20T08:49:17.408Z,1017.68
2017-09-20T08:50:17.410Z,1017.78
2017-09-20T08:51:17.411Z,1017.67
2017-09-20T08:52:17.413Z,1017.64
2017-09-20T08:53:17.416Z,1017.63
2017-09-20T08:54:17.423Z,1017.68
2017-09-20T08:55:17.424Z,1017.62
2017-09-20T08:56:17.427Z,1017.60
2017-09-20T08:57:17.428Z,1017.60
2017-09-20T08:58:17.434Z,1017.68
2017-09-20T08:59:17.432Z,1017.66
2017-09-20T09:00:17.436Z,1017.61
2017-09-20T09:01:17.439Z,1017.57
2017-09-20T09:02:17.435Z,1017.53
2017-09-20T09:03:17.437Z,1017.50
2017-09-20T09:04:17.440Z,1017.54
2017-09-20T09:05:17.443Z,1017.57
2017-09-20T09:06:17.445Z,1017.63
2017-09-20T09:07:17.447Z,1017.60
2017-09-20T09:08:17.451Z,1017.59
2017-09-20T09:09:17.451Z,1017.61
2017-09-20T09:10:17.459Z,1017.72
2017-09-20T09:11:17.458Z,1017.76
2017-09-20T09:12:17.460Z,1017.65
2017-09-20T09:13:17.462Z,1017.65
2017-09-20T09:14:17.464Z,1017.69
2017-09-20T09:15:17.466Z,1017.72
2017-09-20T09:16:17.469Z,1017.70
2017-09-20T09:17:17.472Z,1017.69
2017-09-20T09:18:17.485Z,1017.67
2017-09-20T09:19:17.470Z,1017.67
2017-09-20T09:20:17.474Z,1017.70
2017-09-20T09:21:17.474Z,1017.65
2017-09-20T09:22:17.480Z,1017.60
2017-09-20T09:23:17.479Z,1017.60
2017-09-20T09:24:17.487Z,1017.59
2017-09-20T09:25:17.483Z,1017.70
2017-09-20T09:26:17.490Z,1017.62
2017-09-20T09:27:17.490Z,1017.65
2017-09-20T09:28:17.493Z,1017.60
2017-09-20T09:29:17.496Z,1017.60
2017-09-20T09:30:17.497Z,1017.61
2017-09-20T09:31:17.499Z,1017.67
2017-09-20T09:32:17.502Z,1017.70
2017-09-20T09:33:17.502Z,1017.66
2017-09-20T09:34:17.501Z,1017.65
2017-09-20T09:35:17.501Z,1017.61
2017-09-20T09:36:17.504Z,1017.57
2017-09-20T09:37:17.506Z,1017.59
2017-09-20T09:38:17.509Z,1017.55
2017-09-20T09:39:17.510Z,1017.62
2017-09-20T09:40:17.513Z,1017.73
2017-09-20T09:41:17.512Z,1017.78
2017-09-20T09:42:17.520Z,1017.78
2017-09-20T09:43:17.520Z,1017.89
2017-09-20T09:44:17.525Z,1017.76
2017-09-20T09:45:17.527Z,1017.79
2017-09-20T09:46:17.535Z,1017.62
2017-09-20T09:47:17.529Z,1017.58
2017-09-20T09:48:17.554Z,1017.60
2017-09-20T09:49:17.535Z,1017.69
2017-09-20T09:50:17.534Z,1017.95
2017-09-20T09:51:17.553Z,1017.80
2017-09-20T09:52:17.544Z,1017.78
2017-09-20T09:53:17.543Z,1017.70
2017-09-20T09:54:17.551Z,1017.65
2017-09-20T09:55:17.552Z,1017.60
2017-09-20T09:56:17.565Z,1017.57
2017-09-20T09:57:17.561Z,1017.54
2017-09-20T09:58:17.561Z,1017.57
2017-09-20T09:59:17.565Z,1017.50
2017-09-20T10:00:17.566Z,1017.50
2017-09-20T10:01:17.571Z,1017.47
2017-09-20T10:02:17.575Z,1017.52
2017-09-20T10:03:17.578Z,1017.48
2017-09-20T10:04:17.584Z,1017.50
2017-09-20T10:05:17.585Z,1017.52
2017-09-20T10:06:17.594Z,1017.48
2017-09-20T10:07:17.595Z,1017.45
2017-09-20T10:08:17.598Z,1017.46
2017-09-20T10:09:17.601Z,1017.42
2017-09-20T10:10:17.604Z,1017.48
2017-09-20T10:11:17.607Z,1017.45
2017-09-20T10:12:17.608Z,1017.43
2017-09-20T10:13:17.612Z,1017.47
2017-09-20T10:14:17.610Z,1017.47
2017-09-20T10:15:17.610Z,1017.47
2017-09-20T10:16:17.614Z,1017.50
2017-09-20T10:17:17.616Z,1017.51
2017-09-20T10:18:17.618Z,1017.64
2017-09-20T10:19:17.621Z,1017.58
2017-09-20T10:20:17.621Z,1017.65
2017-09-20T10:21:17.624Z,1017.67
2017-09-20T10:22:17.630Z,1017.65
2017-09-20T10:23:17.630Z,1017.57
2017-09-20T10:24:17.635Z,1017.53
2017-09-20T10:25:17.635Z,1017.49
2017-09-20T10:26:17.653Z,1017.45
2017-09-20T10:27:17.640Z,1017.44
2017-09-20T10:28:17.643Z,1017.53
2017-09-20T10:29:17.646Z,1017.46
2017-09-20T10:30:17.644Z,1017.43
2017-09-20T10:31:17.646Z,1017.42
2017-09-20T10:32:17.652Z,1017.44
2017-09-20T10:33:17.650Z,1017.46
2017-09-20T10:34:17.654Z,1017.43
2017-09-20T10:35:17.656Z,1017.39
2017-09-20T10:36:17.664Z,1017.48
2017-09-20T10:37:17.661Z,1017.43
2017-09-20T10:38:17.668Z,1017.45
2017-09-20T10:39:17.669Z,1017.41
2017-09-20T10:40:17.677Z,1017.39
2017-09-20T10:41:17.674Z,1017.36
2017-09-20T10:42:17.677Z,1017.37
2017-09-20T10:43:17.678Z,1017.35
2017-09-20T10:44:17.683Z,1017.39
2017-09-20T10:45:17.682Z,1017.36
2017-09-20T10:46:17.682Z,1017.39
2017-09-20T10:47:17.683Z,1017.34
2017-09-20T10:48:17.685Z,1017.35
2017-09-20T10:49:17.688Z,1017.36
2017-09-20T10:50:17.691Z,1017.42
2017-09-20T10:51:17.692Z,1017.45
2017-09-20T10:52:17.695Z,1017.43
2017-09-20T10:53:17.697Z,1017.48
2017-09-20T10:54:17.706Z,1017.51
2017-09-20T10:55:17.707Z,1017.39
2017-09-20T10:56:17.709Z,1017.35
2017-09-20T10:57:17.714Z,1017.36
2017-09-20T10:58:17.713Z,1017.30
2017-09-20T10:59:17.717Z,1017.40
2017-09-20T11:00:17.719Z,1017.33
2017-09-20T11:01:17.722Z,1017.46
2017-09-20T11:02:17.733Z,1017.44
2017-09-20T11:03:17.734Z,1017.31
2017-09-20T11:04:17.739Z,1017.36
2017-09-20T11:05:17.744Z,1017.41
2017-09-20T11:06:17.747Z,1017.33
2017-09-20T11:07:17.750Z,1017.54
2017-09-20T11:08:17.756Z,1017.44
2017-09-20T11:09:17.763Z,1017.43
2017-09-20T11:10:17.761Z,1017.41
2017-09-20T11:11:17.765Z,1017.38
2017-09-20T11:12:17.770Z,1017.38
2017-09-20T11:13:17.774Z,1017.47
2017-09-20T11:14:17.780Z,1017.48
2017-09-20T11:15:17.784Z,1017.45
2017-09-20T11:16:17.790Z,1017.31
2017-09-20T11:17:17.798Z,1017.32
2017-09-20T11:18:17.806Z,1017.33
2017-09-20T11:19:17.816Z,1017.34
2017-09-20T11:20:17.817Z,1017.40
2017-09-20T11:21:17.822Z,1017.40
2017-09-20T11:22:17.828Z,1017.38
2017-09-20T11:23:17.833Z,1017.37
2017-09-20T11:24:17.840Z,1017.34
2017-09-20T11:25:17.847Z,1017.31
2017-09-20T11:26:17.848Z,1017.22
2017-09-20T11:27:17.853Z,1017.27
2017-09-20T11:28:17.860Z,1017.28
2017-09-20T11:29:17.866Z,1017.23
2017-09-20T11:30:17.870Z,1017.16
2017-09-20T11:31:17.874Z,1017.22
2017-09-20T11:32:17.881Z,1017.20
2017-09-20T11:33:17.917Z,1017.18
2017-09-20T11:34:17.895Z,1017.11
2017-09-20T11:35:17.902Z,1017.08
2017-09-20T11:36:17.907Z,1017.05
2017-09-20T11:37:17.912Z,1017.01
2017-09-20T11:38:17.918Z,1017.06
2017-09-20T11:39:17.921Z,1017.01
2017-09-20T11:40:17.927Z,1017.04
2017-09-20T11:41:17.930Z,1017.05
2017-09-20T11:42:17.930Z,1016.98
2017-09-20T11:43:17.935Z,1017.02
2017-09-20T11:44:17.940Z,1017.04
2017-09-20T11:45:17.972Z,1016.99
2017-09-20T11:46:17.949Z,1017.00
2017-09-20T11:47:17.952Z,1016.95
2017-09-20T11:48:17.955Z,1016.99
2017-09-20T11:49:17.960Z,1016.99
2017-09-20T11:50:17.968Z,1016.90
2017-09-20T11:51:17.972Z,1016.92
2017-09-20T11:52:17.977Z,1016.88
2017-09-20T11:53:17.978Z,1016.83
2017-09-20T11:54:17.984Z,1016.86
2017-09-20T11:55:17.987Z,1016.88
2017-09-20T11:56:17.990Z,1016.86
2017-09-20T11:57:17.997Z,1016.91
2017-09-20T11:58:17.995Z,1016.91
2017-09-20T11:59:17.996Z,1016.89
2017-09-20T12:00:18.000Z,1016.90
2017-09-20T12:01:18.009Z,1016.86
2017-09-20T12:02:18.013Z,1016.81
2017-09-20T12:03:18.015Z,1016.80
2017-09-20T12:04:18.017Z,1016.80
2017-09-20T12:05:18.023Z,1016.84